sensor_id;sensor_type;location;lat;lon;timestamp;temperature;humidity
9776;DHT22;4927;52.472;13.108;2023-05-29T00:01:00;13.80;99.90
9776;DHT22;4927;52.472;13.108;2023-05-29T00:02:01;13.70;99.90
9776;DHT22;4927;52.472;13.108;2023-05-29T00:03:10;13.70;99.90
9776;DHT22;4927;52.472;13.108;2023-05-29T00:04:11;13.70;99.90
9776;DHT22;4927;52.472;13.108;2023-05-29T00:05:13;13.70;99.90
9776;DHT22;4927;52.472;13.108;2023-05-29T00:06:15;13.60;99.90
9776;DHT22;4927;52.472;13.108;2023-05-29T00:07:16;13.60;99.90
9776;DHT22;4927;52.472;13.108;2023-05-29T00:08:18;13.60;99.90
9776;DHT22;4927;52.472;13.108;2023-05-29T00:09:20;13.50;99.90
9776;DHT22;4927;52.472;13.108;2023-05-29T00:10:21;13.50;99.90
9776;DHT22;4927;52.472;13.108;2023-05-29T00:11:23;13.50;99.90
9776;DHT22;4927;52.472;13.108;2023-05-29T00:12:25;13.40;99.90
9776;DHT22;4927;52.472;13.108;2023-05-29T00:13:27;13.40;99.90
9776;DHT22;4927;52.472;13.108;2023-05-29T00:14:28;13.40;99.90
9776;DHT22;4927;52.472;13.108;2023-05-29T00:15:31;13.30;99.90
9776;DHT22;4927;52.472;13.108;2023-05-29T00:16:32;13.30;99.90
9776;DHT22;4927;52.472;13.108;2023-05-29T00:17:35;13.20;99.90
9776;DHT22;4927;52.472;13.108;2023-05-29T00:18:37;13.10;99.90
9776;DHT22;4927;52.472;13.108;2023-05-29T00:19:39;13.10;99.90
9776;DHT22;4927;52.472;13.108;2023-05-29T00:20:42;13.00;99.90
9776;DHT22;4927;52.472;13.108;2023-05-29T00:21:44;13.00;99.90
9776;DHT22;4927;52.472;13.108;2023-05-29T00:22:46;12.90;99.90
9776;DHT22;4927;52.472;13.108;2023-05-29T00:23:47;12.90;99.90
9776;DHT22;4927;52.472;13.108;2023-05-29T00:24:49;12.90;99.90
9776;DHT22;4927;52.472;13.108;2023-05-29T00:25:50;12.80;99.90
9776;DHT22;4927;52.472;13.108;2023-05-29T00:26:53;12.80;99.90
9776;DHT22;4927;52.472;13.108;2023-05-29T00:27:54;12.70;99.90
9776;DHT22;4927;52.472;13.108;2023-05-29T00:28:56;12.70;99.90
9776;DHT22;4927;52.472;13.108;2023-05-29T00:29:58;12.70;99.90
9776;DHT22;4927;52.472;13.108;2023-05-29T00:30:59;12.60;99.90
9776;DHT22;4927;52.472;13.108;2023-05-29T00:32:01;12.60;99.90
9776;DHT22;4927;52.472;13.108;2023-05-29T00:33:03;12.60;99.90
9776;DHT22;4927;52.472;13.108;2023-05-29T00:34:04;12.50;99.90
9776;DHT22;4927;52.472;13.108;2023-05-29T00:35:07;12.50;99.90
9776;DHT22;4927;52.472;13.108;2023-05-29T00:36:09;12.40;99.90
9776;DHT22;4927;52.472;13.108;2023-05-29T00:37:11;12.40;99.90
9776;DHT22;4927;52.472;13.108;2023-05-29T00:38:13;12.30;99.90
9776;DHT22;4927;52.472;13.108;2023-05-29T00:39:15;12.30;99.90
9776;DHT22;4927;52.472;13.108;2023-05-29T00:40:17;12.20;99.90
9776;DHT22;4927;52.472;13.108;2023-05-29T00:41:20;12.20;99.90
9776;DHT22;4927;52.472;13.108;2023-05-29T00:42:21;12.10;99.90
9776;DHT22;4927;52.472;13.108;2023-05-29T00:43:23;12.10;99.90
9776;DHT22;4927;52.472;13.108;2023-05-29T00:44:25;12.10;99.90
9776;DHT22;4927;52.472;13.108;2023-05-29T00:45:28;12.10;99.90
9776;DHT22;4927;52.472;13.108;2023-05-29T00:46:31;12.10;99.90
9776;DHT22;4927;52.472;13.108;2023-05-29T00:47:32;12.00;99.90
9776;DHT22;4927;52.472;13.108;2023-05-29T00:48:34;12.00;99.90
9776;DHT22;4927;52.472;13.108;2023-05-29T00:49:36;12.00;99.90
9776;DHT22;4927;52.472;13.108;2023-05-29T00:50:38;12.00;99.90
9776;DHT22;4927;52.472;13.108;2023-05-29T00:51:40;11.90;99.90
9776;DHT22;4927;52.472;13.108;2023-05-29T00:52:43;11.90;99.90
9776;DHT22;4927;52.472;13.108;2023-05-29T00:53:44;11.80;99.90
9776;DHT22;4927;52.472;13.108;2023-05-29T00:54:45;11.80;99.90
9776;DHT22;4927;52.472;13.108;2023-05-29T00:55:48;11.80;99.90
9776;DHT22;4927;52.472;13.108;2023-05-29T00:56:49;11.70;99.90
9776;DHT22;4927;52.472;13.108;2023-05-29T00:57:51;11.70;99.90
9776;DHT22;4927;52.472;13.108;2023-05-29T00:58:53;11.70;99.90
9776;DHT22;4927;52.472;13.108;2023-05-29T00:59:55;11.60;99.90
9776;DHT22;4927;52.472;13.108;2023-05-29T01:00:56;11.50;99.90
9776;DHT22;4927;52.472;13.108;2023-05-29T01:01:58;11.40;99.90
9776;DHT22;4927;52.472;13.108;2023-05-29T01:03:00;11.40;99.90
9776;DHT22;4927;52.472;13.108;2023-05-29T01:04:03;11.30;99.90
9776;DHT22;4927;52.472;13.108;2023-05-29T01:05:04;11.20;99.90
9776;DHT22;4927;52.472;13.108;2023-05-29T01:06:06;11.20;99.90
9776;DHT22;4927;52.472;13.108;2023-05-29T01:07:08;11.20;99.90
9776;DHT22;4927;52.472;13.108;2023-05-29T01:08:09;11.20;99.90
9776;DHT22;4927;52.472;13.108;2023-05-29T01:09:11;11.10;99.90
9776;DHT22;4927;52.472;13.108;2023-05-29T01:10:13;11.10;99.90
9776;DHT22;4927;52.472;13.108;2023-05-29T01:11:32;11.10;99.90
9776;DHT22;4927;52.472;13.108;2023-05-29T01:12:37;11.10;99.90
9776;DHT22;4927;52.472;13.108;2023-05-29T01:13:53;11.00;99.90
9776;DHT22;4927;52.472;13.108;2023-05-29T01:15:09;11.00;99.90
9776;DHT22;4927;52.472;13.108;2023-05-29T01:16:16;11.00;99.90
9776;DHT22;4927;52.472;13.108;2023-05-29T01:17:19;11.00;99.90
9776;DHT22;4927;52.472;13.108;2023-05-29T01:20:18;11.00;99.90
9776;DHT22;4927;52.472;13.108;2023-05-29T01:22:12;11.00;99.90
9776;DHT22;4927;52.472;13.108;2023-05-29T01:23:27;11.00;99.90
9776;DHT22;4927;52.472;13.108;2023-05-29T01:24:35;10.90;99.90
9776;DHT22;4927;52.472;13.108;2023-05-29T01:25:44;10.90;99.90
9776;DHT22;4927;52.472;13.108;2023-05-29T01:27:03;10.90;99.90
9776;DHT22;4927;52.472;13.108;2023-05-29T01:28:05;10.90;99.90
9776;DHT22;4927;52.472;13.108;2023-05-29T01:29:07;10.90;99.90
9776;DHT22;4927;52.472;13.108;2023-05-29T01:30:09;10.80;99.90
9776;DHT22;4927;52.472;13.108;2023-05-29T01:31:12;10.80;99.90
9776;DHT22;4927;52.472;13.108;2023-05-29T01:32:21;10.80;99.90
9776;DHT22;4927;52.472;13.108;2023-05-29T01:33:23;10.70;99.90
9776;DHT22;4927;52.472;13.108;2023-05-29T01:34:24;10.80;99.90
9776;DHT22;4927;52.472;13.108;2023-05-29T01:35:26;10.70;99.90
9776;DHT22;4927;52.472;13.108;2023-05-29T01:36:28;10.70;99.90
9776;DHT22;4927;52.472;13.108;2023-05-29T01:37:29;10.70;99.90
9776;DHT22;4927;52.472;13.108;2023-05-29T01:38:31;10.60;99.90
9776;DHT22;4927;52.472;13.108;2023-05-29T01:39:34;10.60;99.90
9776;DHT22;4927;52.472;13.108;2023-05-29T01:40:36;10.60;99.90
9776;DHT22;4927;52.472;13.108;2023-05-29T01:41:37;10.60;99.90
9776;DHT22;4927;52.472;13.108;2023-05-29T01:42:39;10.60;99.90
9776;DHT22;4927;52.472;13.108;2023-05-29T01:43:41;10.50;99.90
9776;DHT22;4927;52.472;13.108;2023-05-29T01:44:43;10.50;99.90
9776;DHT22;4927;52.472;13.108;2023-05-29T01:45:45;10.50;99.90
9776;DHT22;4927;52.472;13.108;2023-05-29T01:46:46;10.50;99.90
9776;DHT22;4927;52.472;13.108;2023-05-29T01:47:48;10.50;99.90
9776;DHT22;4927;52.472;13.108;2023-05-29T01:48:50;10.40;99.90
9776;DHT22;4927;52.472;13.108;2023-05-29T01:49:51;10.40;99.90
9776;DHT22;4927;52.472;13.108;2023-05-29T01:50:54;10.40;99.90
9776;DHT22;4927;52.472;13.108;2023-05-29T01:51:55;10.40;99.90
9776;DHT22;4927;52.472;13.108;2023-05-29T01:52:56;10.40;99.90
9776;DHT22;4927;52.472;13.108;2023-05-29T01:53:58;10.40;99.90
9776;DHT22;4927;52.472;13.108;2023-05-29T01:54:59;10.40;99.90
9776;DHT22;4927;52.472;13.108;2023-05-29T01:56:01;10.40;99.90
9776;DHT22;4927;52.472;13.108;2023-05-29T01:57:03;10.40;99.90
9776;DHT22;4927;52.472;13.108;2023-05-29T01:58:05;10.40;99.90
9776;DHT22;4927;52.472;13.108;2023-05-29T01:59:08;10.40;99.90
9776;DHT22;4927;52.472;13.108;2023-05-29T02:00:10;10.40;99.90
9776;DHT22;4927;52.472;13.108;2023-05-29T02:01:13;10.40;99.90
9776;DHT22;4927;52.472;13.108;2023-05-29T02:02:15;10.30;99.90
9776;DHT22;4927;52.472;13.108;2023-05-29T02:03:17;10.30;99.90
9776;DHT22;4927;52.472;13.108;2023-05-29T02:04:19;10.30;99.90
9776;DHT22;4927;52.472;13.108;2023-05-29T02:05:20;10.30;99.90
9776;DHT22;4927;52.472;13.108;2023-05-29T02:06:22;10.30;99.90
9776;DHT22;4927;52.472;13.108;2023-05-29T02:07:24;10.20;99.90
9776;DHT22;4927;52.472;13.108;2023-05-29T02:08:26;10.20;99.90
9776;DHT22;4927;52.472;13.108;2023-05-29T02:09:28;10.20;99.90
9776;DHT22;4927;52.472;13.108;2023-05-29T02:10:29;10.20;99.90
9776;DHT22;4927;52.472;13.108;2023-05-29T02:11:31;10.20;99.90
9776;DHT22;4927;52.472;13.108;2023-05-29T02:12:32;10.10;99.90
9776;DHT22;4927;52.472;13.108;2023-05-29T02:13:34;10.10;99.90
9776;DHT22;4927;52.472;13.108;2023-05-29T02:14:36;10.00;99.90
9776;DHT22;4927;52.472;13.108;2023-05-29T02:15:38;10.00;99.90
9776;DHT22;4927;52.472;13.108;2023-05-29T02:16:40;10.00;99.90
9776;DHT22;4927;52.472;13.108;2023-05-29T02:17:42;10.00;99.90
9776;DHT22;4927;52.472;13.108;2023-05-29T02:18:45;10.00;99.90
9776;DHT22;4927;52.472;13.108;2023-05-29T02:19:47;10.00;99.90
9776;DHT22;4927;52.472;13.108;2023-05-29T02:20:49;10.00;99.90
9776;DHT22;4927;52.472;13.108;2023-05-29T02:21:52;10.00;99.90
9776;DHT22;4927;52.472;13.108;2023-05-29T02:22:54;9.90;99.90
9776;DHT22;4927;52.472;13.108;2023-05-29T02:23:55;9.90;99.90
9776;DHT22;4927;52.472;13.108;2023-05-29T02:24:58;9.90;99.90
9776;DHT22;4927;52.472;13.108;2023-05-29T02:26:00;9.90;99.90
9776;DHT22;4927;52.472;13.108;2023-05-29T02:27:03;9.90;99.90
9776;DHT22;4927;52.472;13.108;2023-05-29T02:28:05;9.90;99.90
9776;DHT22;4927;52.472;13.108;2023-05-29T02:29:07;9.90;99.90
9776;DHT22;4927;52.472;13.108;2023-05-29T02:30:09;9.80;99.90
9776;DHT22;4927;52.472;13.108;2023-05-29T02:31:11;9.80;99.90
9776;DHT22;4927;52.472;13.108;2023-05-29T02:32:13;9.80;99.90
9776;DHT22;4927;52.472;13.108;2023-05-29T02:33:15;9.80;99.90
9776;DHT22;4927;52.472;13.108;2023-05-29T02:34:16;9.70;99.90
9776;DHT22;4927;52.472;13.108;2023-05-29T02:35:18;9.70;99.90
9776;DHT22;4927;52.472;13.108;2023-05-29T02:36:20;9.70;99.90
9776;DHT22;4927;52.472;13.108;2023-05-29T02:37:21;9.70;99.90
9776;DHT22;4927;52.472;13.108;2023-05-29T02:38:23;9.70;99.90
9776;DHT22;4927;52.472;13.108;2023-05-29T02:39:25;9.70;99.90
9776;DHT22;4927;52.472;13.108;2023-05-29T02:40:26;9.60;99.90
9776;DHT22;4927;52.472;13.108;2023-05-29T02:41:28;9.60;99.90
9776;DHT22;4927;52.472;13.108;2023-05-29T02:42:29;9.60;99.90
9776;DHT22;4927;52.472;13.108;2023-05-29T02:43:31;9.60;99.90
9776;DHT22;4927;52.472;13.108;2023-05-29T02:44:33;9.60;99.90
9776;DHT22;4927;52.472;13.108;2023-05-29T02:45:35;9.60;99.90
9776;DHT22;4927;52.472;13.108;2023-05-29T02:46:37;9.60;99.90
9776;DHT22;4927;52.472;13.108;2023-05-29T02:47:38;9.60;99.90
9776;DHT22;4927;52.472;13.108;2023-05-29T02:48:40;9.60;99.90
9776;DHT22;4927;52.472;13.108;2023-05-29T02:49:41;9.60;99.90
9776;DHT22;4927;52.472;13.108;2023-05-29T02:50:43;9.60;99.90
9776;DHT22;4927;52.472;13.108;2023-05-29T02:51:45;9.50;99.90
9776;DHT22;4927;52.472;13.108;2023-05-29T02:52:46;9.50;99.90
9776;DHT22;4927;52.472;13.108;2023-05-29T02:53:48;9.50;99.90
9776;DHT22;4927;52.472;13.108;2023-05-29T02:54:50;9.50;99.90
9776;DHT22;4927;52.472;13.108;2023-05-29T02:55:52;9.50;99.90
9776;DHT22;4927;52.472;13.108;2023-05-29T02:56:54;9.50;99.90
9776;DHT22;4927;52.472;13.108;2023-05-29T02:57:57;9.50;99.90
9776;DHT22;4927;52.472;13.108;2023-05-29T02:58:58;9.50;99.90
9776;DHT22;4927;52.472;13.108;2023-05-29T03:00:01;9.40;99.90
9776;DHT22;4927;52.472;13.108;2023-05-29T03:01:02;9.40;99.90
9776;DHT22;4927;52.472;13.108;2023-05-29T03:02:03;9.40;99.90
9776;DHT22;4927;52.472;13.108;2023-05-29T03:03:05;9.40;99.90
9776;DHT22;4927;52.472;13.108;2023-05-29T03:04:08;9.40;99.90
9776;DHT22;4927;52.472;13.108;2023-05-29T03:05:10;9.40;99.90
9776;DHT22;4927;52.472;13.108;2023-05-29T03:06:12;9.40;99.90
9776;DHT22;4927;52.472;13.108;2023-05-29T03:07:14;9.40;99.90
9776;DHT22;4927;52.472;13.108;2023-05-29T03:08:15;9.40;99.90
9776;DHT22;4927;52.472;13.108;2023-05-29T03:09:17;9.40;99.90
9776;DHT22;4927;52.472;13.108;2023-05-29T03:10:18;9.40;99.90
9776;DHT22;4927;52.472;13.108;2023-05-29T03:11:20;9.40;99.90
9776;DHT22;4927;52.472;13.108;2023-05-29T03:12:22;9.40;99.90
9776;DHT22;4927;52.472;13.108;2023-05-29T03:13:23;9.40;99.90
9776;DHT22;4927;52.472;13.108;2023-05-29T03:14:25;9.40;99.90
9776;DHT22;4927;52.472;13.108;2023-05-29T03:15:27;9.40;99.90
9776;DHT22;4927;52.472;13.108;2023-05-29T03:16:29;9.40;99.90
9776;DHT22;4927;52.472;13.108;2023-05-29T03:17:31;9.40;99.90
9776;DHT22;4927;52.472;13.108;2023-05-29T03:18:32;9.50;99.90
9776;DHT22;4927;52.472;13.108;2023-05-29T03:19:34;9.50;99.90
9776;DHT22;4927;52.472;13.108;2023-05-29T03:20:35;9.50;99.90
9776;DHT22;4927;52.472;13.108;2023-05-29T03:21:37;9.50;99.90
9776;DHT22;4927;52.472;13.108;2023-05-29T03:22:39;9.50;99.90
9776;DHT22;4927;52.472;13.108;2023-05-29T03:23:42;9.50;99.90
9776;DHT22;4927;52.472;13.108;2023-05-29T03:24:44;9.50;99.90
9776;DHT22;4927;52.472;13.108;2023-05-29T03:25:46;9.50;99.90
9776;DHT22;4927;52.472;13.108;2023-05-29T03:26:47;9.50;99.90
9776;DHT22;4927;52.472;13.108;2023-05-29T03:27:49;9.60;99.90
9776;DHT22;4927;52.472;13.108;2023-05-29T03:28:52;9.60;99.90
9776;DHT22;4927;52.472;13.108;2023-05-29T03:29:53;9.60;99.90
9776;DHT22;4927;52.472;13.108;2023-05-29T03:30:55;9.60;99.90
9776;DHT22;4927;52.472;13.108;2023-05-29T03:31:56;9.60;99.90
9776;DHT22;4927;52.472;13.108;2023-05-29T03:32:58;9.60;99.90
9776;DHT22;4927;52.472;13.108;2023-05-29T03:34:00;9.60;99.90
9776;DHT22;4927;52.472;13.108;2023-05-29T03:35:01;9.60;99.90
9776;DHT22;4927;52.472;13.108;2023-05-29T03:36:04;9.60;99.90
9776;DHT22;4927;52.472;13.108;2023-05-29T03:37:06;9.60;99.90
9776;DHT22;4927;52.472;13.108;2023-05-29T03:38:08;9.60;99.90
9776;DHT22;4927;52.472;13.108;2023-05-29T03:39:09;9.60;99.90
9776;DHT22;4927;52.472;13.108;2023-05-29T03:40:11;9.60;99.90
9776;DHT22;4927;52.472;13.108;2023-05-29T03:41:13;9.60;99.90
9776;DHT22;4927;52.472;13.108;2023-05-29T03:42:15;9.70;99.90
9776;DHT22;4927;52.472;13.108;2023-05-29T03:43:17;9.60;99.90
9776;DHT22;4927;52.472;13.108;2023-05-29T03:44:18;9.60;99.90
9776;DHT22;4927;52.472;13.108;2023-05-29T03:45:20;9.70;99.90
9776;DHT22;4927;52.472;13.108;2023-05-29T03:46:22;9.70;99.90
9776;DHT22;4927;52.472;13.108;2023-05-29T03:47:23;9.70;99.90
9776;DHT22;4927;52.472;13.108;2023-05-29T03:48:25;9.70;99.90
9776;DHT22;4927;52.472;13.108;2023-05-29T03:49:26;9.70;99.90
9776;DHT22;4927;52.472;13.108;2023-05-29T03:50:28;9.70;99.90
9776;DHT22;4927;52.472;13.108;2023-05-29T03:51:36;9.70;99.90
9776;DHT22;4927;52.472;13.108;2023-05-29T03:52:38;9.70;99.90
9776;DHT22;4927;52.472;13.108;2023-05-29T03:53:40;9.80;99.90
9776;DHT22;4927;52.472;13.108;2023-05-29T03:54:41;9.70;99.90
9776;DHT22;4927;52.472;13.108;2023-05-29T03:55:43;9.80;99.90
9776;DHT22;4927;52.472;13.108;2023-05-29T03:56:45;9.80;99.90
9776;DHT22;4927;52.472;13.108;2023-05-29T03:57:47;9.80;99.90
9776;DHT22;4927;52.472;13.108;2023-05-29T03:58:49;9.90;99.90
9776;DHT22;4927;52.472;13.108;2023-05-29T03:59:51;9.80;99.90
9776;DHT22;4927;52.472;13.108;2023-05-29T04:00:52;9.90;99.90
9776;DHT22;4927;52.472;13.108;2023-05-29T04:01:54;9.90;99.90
9776;DHT22;4927;52.472;13.108;2023-05-29T04:02:56;9.90;99.90
9776;DHT22;4927;52.472;13.108;2023-05-29T04:03:57;9.90;99.90
9776;DHT22;4927;52.472;13.108;2023-05-29T04:04:59;9.90;99.90
9776;DHT22;4927;52.472;13.108;2023-05-29T04:06:01;10.00;99.90
9776;DHT22;4927;52.472;13.108;2023-05-29T04:07:02;10.00;99.90
9776;DHT22;4927;52.472;13.108;2023-05-29T04:08:04;10.00;99.90
9776;DHT22;4927;52.472;13.108;2023-05-29T04:09:06;10.10;99.90
9776;DHT22;4927;52.472;13.108;2023-05-29T04:10:08;10.10;99.90
9776;DHT22;4927;52.472;13.108;2023-05-29T04:11:10;10.20;99.90
9776;DHT22;4927;52.472;13.108;2023-05-29T04:12:12;10.10;99.90
9776;DHT22;4927;52.472;13.108;2023-05-29T04:13:15;10.20;99.90
9776;DHT22;4927;52.472;13.108;2023-05-29T04:14:16;10.20;99.90
9776;DHT22;4927;52.472;13.108;2023-05-29T04:15:18;10.30;99.90
9776;DHT22;4927;52.472;13.108;2023-05-29T04:16:19;10.30;99.90
9776;DHT22;4927;52.472;13.108;2023-05-29T04:17:21;10.30;99.90
9776;DHT22;4927;52.472;13.108;2023-05-29T04:18:23;10.30;99.90
9776;DHT22;4927;52.472;13.108;2023-05-29T04:19:24;10.40;99.90
9776;DHT22;4927;52.472;13.108;2023-05-29T04:20:26;10.40;99.90
9776;DHT22;4927;52.472;13.108;2023-05-29T04:21:28;10.50;99.90
9776;DHT22;4927;52.472;13.108;2023-05-29T04:22:30;10.50;99.90
9776;DHT22;4927;52.472;13.108;2023-05-29T04:23:32;10.50;99.90
9776;DHT22;4927;52.472;13.108;2023-05-29T04:24:34;10.60;99.90
9776;DHT22;4927;52.472;13.108;2023-05-29T04:25:36;10.60;99.90
9776;DHT22;4927;52.472;13.108;2023-05-29T04:26:38;10.60;99.90
9776;DHT22;4927;52.472;13.108;2023-05-29T04:27:39;10.60;99.90
9776;DHT22;4927;52.472;13.108;2023-05-29T04:28:42;10.70;99.90
9776;DHT22;4927;52.472;13.108;2023-05-29T04:29:44;10.70;99.90
9776;DHT22;4927;52.472;13.108;2023-05-29T04:30:46;10.70;99.90
9776;DHT22;4927;52.472;13.108;2023-05-29T04:31:48;10.80;99.90
9776;DHT22;4927;52.472;13.108;2023-05-29T04:32:49;10.80;99.90
9776;DHT22;4927;52.472;13.108;2023-05-29T04:33:52;10.80;99.90
9776;DHT22;4927;52.472;13.108;2023-05-29T04:34:53;10.80;99.90
9776;DHT22;4927;52.472;13.108;2023-05-29T04:35:55;10.90;99.90
9776;DHT22;4927;52.472;13.108;2023-05-29T04:36:57;10.80;99.90
9776;DHT22;4927;52.472;13.108;2023-05-29T04:37:58;10.80;99.90
9776;DHT22;4927;52.472;13.108;2023-05-29T04:39:00;10.90;99.90
9776;DHT22;4927;52.472;13.108;2023-05-29T04:40:04;10.90;99.90
9776;DHT22;4927;52.472;13.108;2023-05-29T04:41:05;10.90;99.90
9776;DHT22;4927;52.472;13.108;2023-05-29T04:42:08;11.00;99.90
9776;DHT22;4927;52.472;13.108;2023-05-29T04:43:09;10.90;99.90
9776;DHT22;4927;52.472;13.108;2023-05-29T04:44:12;11.00;99.90
9776;DHT22;4927;52.472;13.108;2023-05-29T04:45:14;11.00;99.90
9776;DHT22;4927;52.472;13.108;2023-05-29T04:46:16;11.10;99.90
9776;DHT22;4927;52.472;13.108;2023-05-29T04:47:18;11.10;99.90
9776;DHT22;4927;52.472;13.108;2023-05-29T04:48:19;11.10;99.90
9776;DHT22;4927;52.472;13.108;2023-05-29T04:49:22;11.20;99.90
9776;DHT22;4927;52.472;13.108;2023-05-29T04:50:23;11.20;99.90
9776;DHT22;4927;52.472;13.108;2023-05-29T04:51:25;11.20;99.90
9776;DHT22;4927;52.472;13.108;2023-05-29T04:52:27;11.30;99.90
9776;DHT22;4927;52.472;13.108;2023-05-29T04:53:29;11.20;99.90
9776;DHT22;4927;52.472;13.108;2023-05-29T04:54:31;11.30;99.90
9776;DHT22;4927;52.472;13.108;2023-05-29T04:55:33;11.30;99.90
9776;DHT22;4927;52.472;13.108;2023-05-29T04:56:34;11.30;99.90
9776;DHT22;4927;52.472;13.108;2023-05-29T04:57:36;11.30;99.90
9776;DHT22;4927;52.472;13.108;2023-05-29T04:58:38;11.30;99.90
9776;DHT22;4927;52.472;13.108;2023-05-29T04:59:39;11.30;99.90
9776;DHT22;4927;52.472;13.108;2023-05-29T05:00:41;11.40;99.90
9776;DHT22;4927;52.472;13.108;2023-05-29T05:01:43;11.40;99.90
9776;DHT22;4927;52.472;13.108;2023-05-29T05:02:45;11.50;99.90
9776;DHT22;4927;52.472;13.108;2023-05-29T05:03:46;11.50;99.90
9776;DHT22;4927;52.472;13.108;2023-05-29T05:04:48;11.60;99.90
9776;DHT22;4927;52.472;13.108;2023-05-29T05:05:49;11.60;99.90
9776;DHT22;4927;52.472;13.108;2023-05-29T05:06:51;11.70;99.90
9776;DHT22;4927;52.472;13.108;2023-05-29T05:07:53;11.80;99.90
9776;DHT22;4927;52.472;13.108;2023-05-29T05:08:55;11.70;99.90
9776;DHT22;4927;52.472;13.108;2023-05-29T05:09:57;11.80;99.90
9776;DHT22;4927;52.472;13.108;2023-05-29T05:10:59;11.80;99.90
9776;DHT22;4927;52.472;13.108;2023-05-29T05:12:00;11.90;99.90
9776;DHT22;4927;52.472;13.108;2023-05-29T05:13:01;11.90;99.90
9776;DHT22;4927;52.472;13.108;2023-05-29T05:14:03;12.00;99.90
9776;DHT22;4927;52.472;13.108;2023-05-29T05:15:05;12.00;99.90
9776;DHT22;4927;52.472;13.108;2023-05-29T05:16:08;12.00;99.90
9776;DHT22;4927;52.472;13.108;2023-05-29T05:17:10;12.10;99.90
9776;DHT22;4927;52.472;13.108;2023-05-29T05:18:11;12.10;99.90
9776;DHT22;4927;52.472;13.108;2023-05-29T05:19:14;12.20;99.90
9776;DHT22;4927;52.472;13.108;2023-05-29T05:20:16;12.30;99.90
9776;DHT22;4927;52.472;13.108;2023-05-29T05:21:19;12.30;99.90
9776;DHT22;4927;52.472;13.108;2023-05-29T05:22:21;12.30;99.90
9776;DHT22;4927;52.472;13.108;2023-05-29T05:23:22;12.30;99.90
9776;DHT22;4927;52.472;13.108;2023-05-29T05:24:24;12.50;99.90
9776;DHT22;4927;52.472;13.108;2023-05-29T05:25:27;12.50;99.90
9776;DHT22;4927;52.472;13.108;2023-05-29T05:26:29;12.50;99.90
9776;DHT22;4927;52.472;13.108;2023-05-29T05:27:32;12.60;99.90
9776;DHT22;4927;52.472;13.108;2023-05-29T05:28:33;12.60;99.90
9776;DHT22;4927;52.472;13.108;2023-05-29T05:29:36;12.70;99.90
9776;DHT22;4927;52.472;13.108;2023-05-29T05:30:37;12.60;99.90
9776;DHT22;4927;52.472;13.108;2023-05-29T05:31:39;12.70;99.90
9776;DHT22;4927;52.472;13.108;2023-05-29T05:32:40;12.80;99.90
9776;DHT22;4927;52.472;13.108;2023-05-29T05:33:42;12.80;99.90
9776;DHT22;4927;52.472;13.108;2023-05-29T05:34:44;12.90;99.90
9776;DHT22;4927;52.472;13.108;2023-05-29T05:35:46;12.90;99.90
9776;DHT22;4927;52.472;13.108;2023-05-29T05:36:48;12.90;99.90
9776;DHT22;4927;52.472;13.108;2023-05-29T05:37:49;13.00;99.90
9776;DHT22;4927;52.472;13.108;2023-05-29T05:38:51;13.00;99.90
9776;DHT22;4927;52.472;13.108;2023-05-29T05:39:53;13.00;99.90
9776;DHT22;4927;52.472;13.108;2023-05-29T05:40:54;13.10;99.90
9776;DHT22;4927;52.472;13.108;2023-05-29T05:41:56;13.10;99.90
9776;DHT22;4927;52.472;13.108;2023-05-29T05:42:58;13.10;99.90
9776;DHT22;4927;52.472;13.108;2023-05-29T05:43:59;13.20;99.90
9776;DHT22;4927;52.472;13.108;2023-05-29T05:45:02;13.30;99.90
9776;DHT22;4927;52.472;13.108;2023-05-29T05:46:04;13.30;99.90
9776;DHT22;4927;52.472;13.108;2023-05-29T05:47:06;13.30;99.90
9776;DHT22;4927;52.472;13.108;2023-05-29T05:48:08;13.40;99.90
9776;DHT22;4927;52.472;13.108;2023-05-29T05:49:09;13.40;99.90
9776;DHT22;4927;52.472;13.108;2023-05-29T05:50:11;13.50;99.90
9776;DHT22;4927;52.472;13.108;2023-05-29T05:51:12;13.50;99.90
9776;DHT22;4927;52.472;13.108;2023-05-29T05:52:14;13.50;99.90
9776;DHT22;4927;52.472;13.108;2023-05-29T05:53:16;13.60;99.90
9776;DHT22;4927;52.472;13.108;2023-05-29T05:54:18;13.60;99.90
9776;DHT22;4927;52.472;13.108;2023-05-29T05:55:20;13.70;99.90
9776;DHT22;4927;52.472;13.108;2023-05-29T05:56:22;13.70;99.90
9776;DHT22;4927;52.472;13.108;2023-05-29T05:57:23;13.70;99.90
9776;DHT22;4927;52.472;13.108;2023-05-29T05:58:25;13.70;99.90
9776;DHT22;4927;52.472;13.108;2023-05-29T05:59:27;13.80;99.90
9776;DHT22;4927;52.472;13.108;2023-05-29T06:00:29;13.80;99.90
9776;DHT22;4927;52.472;13.108;2023-05-29T06:01:31;13.80;99.90
9776;DHT22;4927;52.472;13.108;2023-05-29T06:02:32;13.80;99.90
9776;DHT22;4927;52.472;13.108;2023-05-29T06:03:35;13.90;99.90
9776;DHT22;4927;52.472;13.108;2023-05-29T06:04:36;13.90;99.90
9776;DHT22;4927;52.472;13.108;2023-05-29T06:05:38;13.90;99.90
9776;DHT22;4927;52.472;13.108;2023-05-29T06:06:39;14.00;99.90
9776;DHT22;4927;52.472;13.108;2023-05-29T06:07:41;14.00;99.90
9776;DHT22;4927;52.472;13.108;2023-05-29T06:08:43;14.00;99.90
9776;DHT22;4927;52.472;13.108;2023-05-29T06:09:45;14.10;99.90
9776;DHT22;4927;52.472;13.108;2023-05-29T06:10:48;14.10;99.90
9776;DHT22;4927;52.472;13.108;2023-05-29T06:11:49;14.10;99.90
9776;DHT22;4927;52.472;13.108;2023-05-29T06:12:51;14.10;99.90
9776;DHT22;4927;52.472;13.108;2023-05-29T06:13:53;14.20;99.90
9776;DHT22;4927;52.472;13.108;2023-05-29T06:14:54;14.20;99.90
9776;DHT22;4927;52.472;13.108;2023-05-29T06:15:56;14.20;99.90
9776;DHT22;4927;52.472;13.108;2023-05-29T06:16:58;14.30;99.90
9776;DHT22;4927;52.472;13.108;2023-05-29T06:17:59;14.30;99.90
9776;DHT22;4927;52.472;13.108;2023-05-29T06:19:02;14.50;99.90
9776;DHT22;4927;52.472;13.108;2023-05-29T06:20:04;14.40;99.90
9776;DHT22;4927;52.472;13.108;2023-05-29T06:21:06;14.50;99.90
9776;DHT22;4927;52.472;13.108;2023-05-29T06:22:08;14.50;99.90
9776;DHT22;4927;52.472;13.108;2023-05-29T06:23:10;14.60;99.90
9776;DHT22;4927;52.472;13.108;2023-05-29T06:24:12;14.60;99.90
9776;DHT22;4927;52.472;13.108;2023-05-29T06:25:15;14.70;99.90
9776;DHT22;4927;52.472;13.108;2023-05-29T06:26:16;14.70;99.90
9776;DHT22;4927;52.472;13.108;2023-05-29T06:27:18;14.70;99.90
9776;DHT22;4927;52.472;13.108;2023-05-29T06:28:20;14.80;99.90
9776;DHT22;4927;52.472;13.108;2023-05-29T06:29:21;14.80;99.90
9776;DHT22;4927;52.472;13.108;2023-05-29T06:30:23;14.90;99.90
9776;DHT22;4927;52.472;13.108;2023-05-29T06:31:24;14.90;99.90
9776;DHT22;4927;52.472;13.108;2023-05-29T06:32:27;15.00;99.90
9776;DHT22;4927;52.472;13.108;2023-05-29T06:33:29;15.00;99.90
9776;DHT22;4927;52.472;13.108;2023-05-29T06:34:30;15.00;99.90
9776;DHT22;4927;52.472;13.108;2023-05-29T06:35:32;15.10;99.90
9776;DHT22;4927;52.472;13.108;2023-05-29T06:36:33;15.10;99.90
9776;DHT22;4927;52.472;13.108;2023-05-29T06:37:35;15.10;99.90
9776;DHT22;4927;52.472;13.108;2023-05-29T06:38:37;15.20;99.90
9776;DHT22;4927;52.472;13.108;2023-05-29T06:39:38;15.20;99.90
9776;DHT22;4927;52.472;13.108;2023-05-29T06:40:40;15.30;99.90
9776;DHT22;4927;52.472;13.108;2023-05-29T06:41:42;15.30;99.90
9776;DHT22;4927;52.472;13.108;2023-05-29T06:42:45;15.40;99.90
9776;DHT22;4927;52.472;13.108;2023-05-29T06:43:47;15.40;99.90